• Join FlightAware (Why Join?)
  • Login
  • US Flag 
04:05AM EDT


 

Airport Tracker/Info


-or-


 

Live Flight TrackerFlight Track Log ✈ N88WF ✈ 28-Sep-2013 ✈ KHPN - KJQF

Flight Track Log - Related Links

Times and Time Zones

All times are in EDT time to prevent confusion due to time zone crossing. See the N88WF flight status page for this flight to view local times or setup timezone preferences in your user account.

Time Position Orientation Groundspeed Altitude Reporting Facility
EDT Latitude Longitude Course Direction KTS MPH feet Rate Location/Type
06:33PM 40.7900 -75.1360 238° Southwest 167 192 9,700  Level FlightAware
06:33PM 40.7800 -75.1570 238° Southwest 168 193 9,700  Level FlightAware
06:33PM 40.7710 -75.1750 237° Southwest 170 196 9,700  Level FlightAware
06:34PM 40.7650 -75.1890 241° Southwest 170 196 9,700  Level FlightAware
06:34PM 40.7540 -75.2090 234° Southwest 171 197 9,700  Level FlightAware
06:34PM 40.7450 -75.2280 238° Southwest 169 194 9,700  Level FlightAware
06:35PM 40.7420 -75.2350 241° Southwest 169 194 9,700  Level FlightAware
06:35PM 40.7310 -75.2570 237° Southwest 170 196 9,700  Level FlightAware
06:35PM 40.7190 -75.2810 237° Southwest 171 197 9,700  Level FlightAware
06:36PM 40.7100 -75.2990 237° Southwest 171 197 9,700  Level FlightAware
06:36PM 40.6990 -75.3210 237° Southwest 171 197 9,700  Level FlightAware
06:37PM 40.6900 -75.3380 235° Southwest 173 199 9,700  Level FlightAware
06:37PM 40.6820 -75.3550 238° Southwest 174 200 9,700  Level FlightAware
06:37PM 40.6760 -75.3660 234° Southwest 174 200 9,700  Level FlightAware
06:38PM 40.6640 -75.3900 237° Southwest 174 200 9,700  Level FlightAware
06:38PM 40.6560 -75.4070 238° Southwest 174 200 9,700  Level FlightAware
06:38PM 40.6470 -75.4240 235° Southwest 174 200 9,700  Level FlightAware
06:39PM 40.6370 -75.4440 237° Southwest 174 200 9,700  Level FlightAware
06:39PM 40.6320 -75.4550 239° Southwest 174 200 9,700  Level FlightAware
06:39PM 40.6240 -75.4710 237° Southwest 174 200 9,700  Level FlightAware
06:39PM 40.6130 -75.4930 237° Southwest 174 200 9,700  Level FlightAware
06:40PM 40.6040 -75.5110 237° Southwest 175 201 9,700  Level FlightAware
06:40PM 40.5940 -75.5290 234° Southwest 176 203 9,700  Level FlightAware
06:41PM 40.5830 -75.5510 237° Southwest 176 203 9,700  Level FlightAware
06:41PM 40.5740 -75.5710 239° Southwest 176 203 9,700  Level FlightAware
06:41PM 40.5650 -75.5880 235° Southwest 173 199 9,700  Level FlightAware
06:42PM 40.5570 -75.6040 237° Southwest 174 200 9,700  Level FlightAware
06:42PM 40.5490 -75.6200 237° Southwest 175 201 9,700  Level FlightAware
06:42PM 40.5380 -75.6420 237° Southwest 174 200 9,700  Level FlightAware
06:43PM 40.5270 -75.6640 237° Southwest 173 199 9,700  Level FlightAware
06:43PM 40.5180 -75.6800 234° Southwest 174 200 9,700  Level FlightAware
06:43PM 40.5100 -75.6960 237° Southwest 175 201 9,700  Level FlightAware
06:44PM 40.5020 -75.7130 238° Southwest 175 201 9,700  Level FlightAware
06:44PM 40.4930 -75.7310 237° Southwest 175 201 9,700  Level FlightAware
06:44PM 40.4850 -75.7470 237° Southwest 175 201 9,700  Level FlightAware
06:45PM 40.4740 -75.7690 237° Southwest 175 201 9,700  Level FlightAware
06:45PM 40.4650 -75.7860 235° Southwest 173 199 9,700  Level FlightAware
06:45PM 40.4560 -75.8040 237° Southwest 173 199 9,700  Level FlightAware
06:46PM 40.4490 -75.8170 235° Southwest 175 201 9,700  Level FlightAware
06:46PM 40.4380 -75.8380 235° Southwest 175 201 9,700  Level FlightAware
06:46PM 40.4300 -75.8550 238° Southwest 175 201 9,700  Level FlightAware
06:47PM 40.4210 -75.8720 235° Southwest 175 201 9,700  Level FlightAware
06:47PM 40.4140 -75.8870 238° Southwest 175 201 9,700  Level FlightAware
06:47PM 40.4050 -75.9040 235° Southwest 175 201 9,700  Level FlightAware
06:48PM 40.3960 -75.9220 237° Southwest 175 201 9,700  Level FlightAware
06:48PM 40.3870 -75.9390 235° Southwest 175 201 9,700  Level FlightAware
06:48PM 40.3780 -75.9580 238° Southwest 175 201 9,700  Level FlightAware
06:49PM 40.3670 -75.9800 237° Southwest 175 201 9,700  Level FlightAware
06:49PM 40.3580 -75.9970 235° Southwest 175 201 9,700  Level FlightAware
06:49PM 40.3490 -76.0130 234° Southwest 175 201 9,700  Level FlightAware
06:50PM 40.3400 -76.0330 239° Southwest 174 200 9,700  Level FlightAware
06:50PM 40.3290 -76.0540 236° Southwest 174 200 9,700  Level FlightAware
06:50PM 40.3220 -76.0670 235° Southwest 174 200 9,700  Level FlightAware
06:51PM 40.3150 -76.0830 240° Southwest 174 200 9,700  Level FlightAware
06:51PM 40.3080 -76.1040 246° West 174 200 9,700  Level FlightAware
06:51PM 40.3040 -76.1150 245° Southwest 175 201 9,700  Level FlightAware
06:52PM 40.2950 -76.1390 244° Southwest 174 200 9,700  Level FlightAware
06:52PM 40.2910 -76.1500 245° Southwest 174 200 9,700  Level FlightAware
06:52PM 40.2820 -76.1770 246° West 174 200 9,700  Level FlightAware
06:53PM 40.2750 -76.1960 244° Southwest 174 200 9,700  Level FlightAware
06:53PM 40.2660 -76.2200 244° Southwest 174 200 9,700  Level FlightAware
06:53PM 40.2600 -76.2390 248° West 174 200 9,700  Level FlightAware
06:54PM 40.2530 -76.2570 243° Southwest 174 200 9,700  Level FlightAware
06:54PM 40.2460 -76.2760 244° Southwest 175 201 9,700  Level FlightAware
06:54PM 40.2390 -76.2950 244° Southwest 175 201 9,700  Level FlightAware
06:55PM 40.2300 -76.3210 246° West 175 201 9,700  Level FlightAware
06:55PM 40.2230 -76.3400 244° Southwest 175 201 9,700  Level FlightAware
06:55PM 40.2190 -76.3510 245° Southwest 176 203 9,700  Level FlightAware
06:56PM 40.2120 -76.3710 245° Southwest 176 203 9,700  Level FlightAware
06:56PM 40.2070 -76.3850 245° Southwest 176 203 9,700  Level FlightAware
06:56PM 40.1990 -76.4070 245° Southwest 178 205 9,700  Level FlightAware
06:57PM 40.1920 -76.4270 245° Southwest 178 205 9,700  Level FlightAware
06:57PM 40.1850 -76.4450 243° Southwest 176 203 9,700  Level FlightAware
06:57PM 40.1770 -76.4680 246° West 178 205 9,700  Level FlightAware
06:58PM 40.1700 -76.4890 246° West 178 205 9,700  Level FlightAware
06:58PM 40.1620 -76.5090 242° Southwest 178 205 9,700  Level FlightAware
06:58PM 40.1550 -76.5280 244° Southwest 178 205 9,700  Level FlightAware
06:59PM 40.1470 -76.5510 246° West 178 205 9,700  Level FlightAware
06:59PM 40.1400 -76.5710 245° Southwest 177 204 9,700  Level FlightAware
06:59PM 40.1330 -76.5890 243° Southwest 177 204 9,700  Level FlightAware
07:00PM 40.1260 -76.6090 245° Southwest 177 204 9,700  Level FlightAware
07:00PM 40.1170 -76.6330 244° Southwest 176 203 9,700  Level FlightAware
07:00PM 40.1100 -76.6520 244° Southwest 177 204 9,700  Level FlightAware
07:01PM 40.1040 -76.6700 246° West 175 201 9,700  Level FlightAware
07:01PM 40.0970 -76.6900 245° Southwest 175 201 9,700  Level FlightAware
07:01PM 40.0880 -76.7140 244° Southwest 177 204 9,700  Level FlightAware
07:02PM 40.0820 -76.7310 245° Southwest 175 201 9,700  Level FlightAware
07:02PM 40.0740 -76.7510 242° Southwest 173 199 9,700  Level FlightAware
07:02PM 40.0670 -76.7700 244° Southwest 174 200 9,700  Level FlightAware
07:03PM 40.0600 -76.7890 244° Southwest 174 200 9,700  Level FlightAware
07:03PM 40.0520 -76.8120 246° West 174 200 9,700  Level FlightAware
07:04PM 40.0450 -76.8310 244° Southwest 175 201 9,700  Level FlightAware
07:04PM 40.0390 -76.8480 245° Southwest 176 203 9,700  Level FlightAware
07:04PM 40.0300 -76.8730 245° Southwest 176 203 9,700  Level FlightAware
07:05PM 40.0220 -76.8930 242° Southwest 176 203 9,700  Level FlightAware
07:05PM 40.0160 -76.9110 246° West 177 204 9,700  Level FlightAware
07:05PM 40.0090 -76.9300 244° Southwest 176 203 9,700  Level FlightAware
07:06PM 40.0020 -76.9500 245° Southwest 174 200 9,700  Level FlightAware
07:06PM 39.9930 -76.9720 242° Southwest 175 201 9,700  Level FlightAware
07:06PM 39.9860 -76.9920 245° Southwest 176 203 9,700  Level FlightAware
07:07PM 39.9730 -77.0160 235° Southwest 174 200 9,700  Level FlightAware
07:07PM 39.9590 -77.0360 228° Southwest 170 196 9,700  Level FlightAware
07:07PM 39.9520 -77.0460 228° Southwest 174 200 9,700  Level FlightAware
07:08PM 39.9380 -77.0650 226° Southwest 174 200 9,700  Level FlightAware
07:08PM 39.9290 -77.0780 228° Southwest 174 200 9,700  Level FlightAware
07:08PM 39.9180 -77.0940 228° Southwest 174 200 9,700  Level FlightAware
07:09PM 39.9110 -77.1040 228° Southwest 174 200 9,700  Level FlightAware
07:09PM 39.9000 -77.1210 230° Southwest 174 200 9,700  Level FlightAware
07:09PM 39.8880 -77.1370 226° Southwest 174 200 9,700  Level FlightAware
07:10PM 39.8720 -77.1600 228° Southwest 172 198 9,700  Level FlightAware
07:10PM 39.8630 -77.1730 228° Southwest 172 198 9,700  Level FlightAware
07:11PM 39.8430 -77.2020 228° Southwest 172 198 9,700  Level FlightAware
07:11PM 39.8320 -77.2180 228° Southwest 173 199 9,700  Level FlightAware
07:12PM 39.8190 -77.2360 227° Southwest 172 198 9,700  Level FlightAware
07:12PM 39.8080 -77.2510 226° Southwest 173 199 9,700  Level FlightAware
07:12PM 39.7980 -77.2650 227° Southwest 172 198 9,700  Level FlightAware
07:13PM 39.7860 -77.2830 229° Southwest 173 199 9,700  Level FlightAware
07:13PM 39.7730 -77.3010 227° Southwest 174 200 9,700  Level FlightAware
07:13PM 39.7630 -77.3160 229° Southwest 174 200 9,700  Level FlightAware
07:14PM 39.7490 -77.3360 228° Southwest 174 200 9,700  Level FlightAware
07:14PM 39.7430 -77.3440 226° Southwest 174 200 9,700  Level FlightAware
07:14PM 39.8200 -77.2350 47° Northeast 9,700  Level FlightAware
07:15PM 39.7010 -77.4040 228° Southwest 174 200 9,700  Level FlightAware
07:16PM 39.6820 -77.4310 228° Southwest 174 200 9,700  Level FlightAware
07:16PM 39.6700 -77.4470 226° Southwest 174 200 9,700  Level FlightAware
07:17PM 39.6500 -77.4750 227° Southwest 176 203 9,700  Level FlightAware
07:17PM 39.6330 -77.5000 229° Southwest 296 341 9,700  Level FlightAware
07:19PM 39.5760 -77.5760 226° Southwest 9,700  Level FlightAware
07:19PM 39.5540 -77.5930 211° Southwest 198 228 9,700  Level FlightAware
07:20PM 39.5420 -77.6020 210° Southwest 178 205 9,700  Level FlightAware
07:21PM 39.5010 -77.6350 212° Southwest 179 206 9,700  Level FlightAware
07:21PM 39.5800 -77.5730 31° Northeast 909 1046 9,700  Level FlightAware
07:22PM 39.5460 -77.6000 211° Southwest 179 206 9,700  Level FlightAware
07:22PM 39.5290 -77.6130 211° Southwest 180 207 9,700  Level FlightAware
07:22PM 39.5120 -77.6270 212° Southwest 177 204 9,700  Level FlightAware
07:23PM 39.4990 -77.6370 211° Southwest 176 203 9,700  Level FlightAware
07:23PM 39.4880 -77.6460 212° Southwest 176 203 9,700  Level FlightAware
07:23PM 39.4780 -77.6540 212° Southwest 176 203 9,700  Level FlightAware
07:24PM 39.4630 -77.6650 210° Southwest 176 203 9,700  Level FlightAware
07:24PM 39.4470 -77.6790 214° Southwest 176 203 9,700  Level FlightAware
07:24PM 39.4340 -77.6890 211° Southwest 177 204 9,700  Level FlightAware
07:25PM 39.4160 -77.7030 211° Southwest 177 204 9,700  Level FlightAware
07:25PM 39.4000 -77.7150 210° Southwest 177 204 9,700  Level FlightAware
07:26PM 39.3820 -77.7300 213° Southwest 177 204 9,700  Level FlightAware
07:26PM 39.3730 -77.7370 211° Southwest 177 204 9,700  Level FlightAware
07:26PM 39.3650 -77.7440 214° Southwest 177 204 9,700  Level FlightAware
07:27PM 39.3560 -77.7510 211° Southwest 176 203 9,700  Level FlightAware
07:27PM 39.3520 -77.7540 210° Southwest 176 203 9,700  Level FlightAware
07:27PM 39.3420 -77.7620 212° Southwest 176 203 9,700  Level FlightAware
07:28PM 39.3370 -77.7650 205° Southwest 176 203 9,700  Level FlightAware
07:28PM 39.3340 -77.7680 218° Southwest 176 203 9,700  Level FlightAware
07:28PM 39.3280 -77.7730 213° Southwest 176 203 9,700  Level FlightAware
07:29PM 39.3200 -77.7790 210° Southwest 176 203 9,700  Level FlightAware
07:29PM 39.3130 -77.7850 214° Southwest 176 203 9,700  Level FlightAware
07:29PM 39.3050 -77.7910 210° Southwest 176 203 9,700  Level FlightAware
07:30PM 39.2970 -77.7970 210° Southwest 176 203 9,700  Level FlightAware
07:30PM 39.1030 -77.9510 212° Southwest 178 205 9,700  Level FlightAware
07:30PM 39.0890 -77.9620 211° Southwest 179 206 9,700  Level FlightAware
07:31PM 39.0720 -77.9750 211° Southwest 178 205 9,700  Level FlightAware
07:31PM 39.0530 -77.9900 212° Southwest 178 205 9,700  Level FlightAware
07:32PM 39.0410 -78.0000 213° Southwest 178 205 9,700  Level FlightAware
07:32PM 39.0260 -78.0110 210° Southwest 178 205 9,700  Level FlightAware
07:32PM 39.0120 -78.0230 214° Southwest 178 205 9,700  Level FlightAware
07:33PM 38.9900 -78.0400 211° Southwest 178 205 9,700  Level FlightAware
07:33PM 38.9780 -78.0490 210° Southwest 179 206 9,700  Level FlightAware
07:34PM 38.9580 -78.0650 212° Southwest 180 207 9,700  Level FlightAware
07:34PM 38.9400 -78.0790 211° Southwest 180 207 9,700  Level FlightAware
07:34PM 38.9230 -78.0920 211° Southwest 179 206 9,700  Level FlightAware
07:35PM 38.9100 -78.1030 213° Southwest 179 206 9,700  Level FlightAware
07:35PM 38.8960 -78.1140 211° Southwest 179 206 9,700  Level FlightAware
07:35PM 38.8790 -78.1260 209° Southwest 179 206 9,700  Level FlightAware
07:36PM 38.8640 -78.1380 212° Southwest 179 206 9,700  Level FlightAware
07:36PM 38.8500 -78.1490 211° Southwest 179 206 9,700  Level FlightAware
07:37PM 38.8320 -78.1630 211° Southwest 178 205 9,700  Level FlightAware
07:37PM 38.8170 -78.1750 212° Southwest 178 205 9,700  Level FlightAware
07:37PM 38.8020 -78.1870 212° Southwest 178 205 9,700  Level FlightAware
07:38PM 38.7860 -78.1990 210° Southwest 178 205 9,700  Level FlightAware
07:38PM 38.7690 -78.2120 211° Southwest 178 205 9,700  Level FlightAware
07:38PM 38.7560 -78.2230 213° Southwest 179 206 9,700  Level FlightAware
07:39PM 38.7400 -78.2350 210° Southwest 179 206 9,700  Level FlightAware
07:39PM 38.7220 -78.2490 211° Southwest 179 206 9,700  Level FlightAware
07:40PM 38.6960 -78.2690 211° Southwest 179 206 9,700  Level FlightAware
07:40PM 38.6810 -78.2800 210° Southwest 179 206 9,700  Level FlightAware
07:41PM 38.6670 -78.2920 214° Southwest 179 206 9,700  Level FlightAware
07:41PM 38.6520 -78.3030 210° Southwest 179 206 9,700  Level FlightAware
07:41PM 38.6280 -78.3220 212° Southwest 179 206 9,700  Level FlightAware
07:42PM 38.6110 -78.3350 211° Southwest 179 206 9,700  Level FlightAware
07:42PM 38.5900 -78.3510 211° Southwest 179 206 9,700  Level FlightAware
07:43PM 38.5720 -78.3650 211° Southwest 179 206 9,700  Level FlightAware
07:43PM 38.5560 -78.3780 212° Southwest 179 206 9,700  Level FlightAware
07:43PM 38.5420 -78.3880 209° Southwest 181 208 9,700  Level FlightAware
07:44PM 38.5280 -78.3990 212° Southwest 180 207 9,700  Level FlightAware
07:44PM 38.5130 -78.4110 212° Southwest 180 207 9,700  Level FlightAware
07:44PM 38.4990 -78.4220 212° Southwest 181 208 9,700  Level FlightAware
07:45PM 38.4870 -78.4310 210° Southwest 179 206 9,700  Level FlightAware
07:45PM 38.4740 -78.4410 211° Southwest 179 206 9,700  Level FlightAware
07:45PM 38.4590 -78.4530 212° Southwest 180 207 9,700  Level FlightAware
07:46PM 38.4410 -78.4660 209° Southwest 179 206 9,700  Level FlightAware
07:46PM 38.4280 -78.4770 214° Southwest 179 206 9,700  Level FlightAware
07:46PM 38.4140 -78.4880 212° Southwest 179 206 9,700  Level FlightAware
07:47PM 38.3990 -78.4980 208° Southwest 179 206 9,700  Level FlightAware
07:47PM 38.3780 -78.5150 212° Southwest 180 207 9,700  Level FlightAware
07:48PM 38.3630 -78.5260 210° Southwest 181 208 9,700  Level FlightAware
07:48PM 38.3490 -78.5380 214° Southwest 181 208 9,700  Level FlightAware
07:48PM 38.3320 -78.5510 211° Southwest 181 208 9,700  Level FlightAware
07:49PM 38.3160 -78.5630 210° Southwest 181 208 9,700  Level FlightAware
07:49PM 38.3020 -78.5740 212° Southwest 181 208 9,700  Level FlightAware
07:49PM 38.2860 -78.5850 208° Southwest 181 208 9,700  Level FlightAware
07:50PM 38.2720 -78.5970 214° Southwest 181 208 9,700  Level FlightAware
07:50PM 38.2490 -78.6130 209° Southwest 182 209 9,700  Level FlightAware
07:51PM 38.2340 -78.6240 210° Southwest 182 209 9,700  Level FlightAware
07:51PM 38.2140 -78.6400 212° Southwest 182 209 9,700  Level FlightAware
07:52PM 38.1930 -78.6560 211° Southwest 183 211 9,700  Level FlightAware
07:52PM 38.1770 -78.6690 213° Southwest 182 209 9,700  Level FlightAware
07:52PM 38.1610 -78.6810 211° Southwest 182 209 9,700  Level FlightAware
07:53PM 38.1470 -78.6920 212° Southwest 182 209 9,700  Level FlightAware
07:53PM 38.1320 -78.7030 210° Southwest 182 209 9,700  Level FlightAware
07:53PM 38.1170 -78.7150 212° Southwest 182 209 9,700  Level FlightAware
07:54PM 38.1090 -78.7210 211° Southwest 182 209 9,700  Level FlightAware
07:54PM 38.0640 -78.7550 211° Southwest 182 209 9,700  Level FlightAware
07:55PM 38.0490 -78.7670 212° Southwest 182 209 9,700  Level FlightAware
07:55PM 38.0280 -78.7830 211° Southwest 182 209 9,700  Level FlightAware
07:56PM 38.0130 -78.7940 210° Southwest 182 209 9,700  Level FlightAware
07:56PM 37.9950 -78.8070 210° Southwest 182 209 9,700  Level FlightAware
07:57PM 37.9670 -78.8290 212° Southwest 179 206 9,700  Level FlightAware
07:57PM 37.9490 -78.8430 212° Southwest 178 205 9,700  Level FlightAware
07:57PM 37.9340 -78.8530 208° Southwest 178 205 9,700  Level FlightAware
07:58PM 37.9180 -78.8660 213° Southwest 178 205 9,700  Level FlightAware
07:58PM 37.9030 -78.8770 210° Southwest 178 205 9,700  Level FlightAware
07:58PM 37.8900 -78.8870 211° Southwest 178 205 9,700  Level FlightAware
07:59PM 37.8750 -78.8980 210° Southwest 178 205 9,700  Level FlightAware
07:59PM 37.8570 -78.9120 212° Southwest 178 205 9,700  Level FlightAware
08:00PM 37.8410 -78.9250 213° Southwest 178 205 9,700 240 Level FlightAware
08:00PM 37.8133 -78.9486 213° Southwest 188 216 10,000 120 Climbing Washington Center
08:02PM 37.7708 -78.9808 211° Southwest 188 216 10,000  Level Washington Center
08:03PM 37.7219 -79.0181 211° Southwest 188 216 10,000  Level Washington Center
08:04PM 37.6814 -79.0478 210° Southwest 188 216 10,000  Level Washington Center
08:05PM 37.6386 -79.0797 211° Southwest 188 216 10,000  Level Washington Center
08:05PM 37.5961 -79.1119 211° Southwest 188 216 10,000  Level Washington Center
08:07PM 37.5578 -79.1389 209° Southwest 188 216 10,000  Level Washington Center
08:08PM 37.5086 -79.1733 209° Southwest 188 216 10,000  Level Washington Center
08:09PM 37.4661 -79.2053 211° Southwest 188 216 10,000  Level Washington Center
08:10PM 37.4256 -79.2297 206° Southwest 188 216 10,000  Level Washington Center
08:10PM 37.3808 -79.2589 207° Southwest 188 216 10,000  Level Washington Center
08:11PM 37.3319 -79.2903 207° Southwest 188 216 10,000  Level Washington Center
08:13PM 37.2872 -79.3197 208° Southwest 188 216 10,000  Level Washington Center
08:14PM 37.2425 -79.3486 207° Southwest 188 216 10,000  Level Washington Center
08:15PM 37.1978 -79.3778 207° Southwest 183 211 10,000  Level Washington Center
08:15PM 37.1572 -79.4069 210° Southwest 183 211 10,000  Level Washington Center
08:16PM 37.1169 -79.4311 206° Southwest 183 211 10,000  Level Washington Center
08:18PM 37.0742 -79.4603 209° Southwest 183 211 10,000  Level Washington Center
08:19PM 37.0275 -79.4864 204° Southwest 183 211 10,000  Level Washington Center
08:19PM 36.9847 -79.5156 209° Southwest 183 211 10,000  Level Washington Center
08:20PM 36.9358 -79.5469 207° Southwest 183 211 10,000  Level Washington Center
08:22PM 36.8911 -79.5758 207° Southwest 183 211 10,000  Level Washington Center
08:23PM 36.8483 -79.6019 206° Southwest 183 211 10,000 -120 Level Washington Center
08:25PM 36.7573 -79.6397 208° Southwest  Level FlightAware Approximate
08:32PM 36.4579 -79.8366 207° Southwest  Level FlightAware Approximate
08:33PM 36.4150 -79.8642 207° Southwest  Level FlightAware Approximate
08:34PM 36.3720 -79.8918 207° Southwest  Level FlightAware Approximate
08:35PM 36.3290 -79.9193 207° Southwest  Level FlightAware Approximate
08:36PM 36.2860 -79.9468 207° Southwest  Level FlightAware Approximate
08:37PM 36.2430 -79.9743 207° Southwest  Level FlightAware Approximate
08:38PM 36.2000 -80.0017 207° Southwest  Level FlightAware Approximate
08:39PM 36.1570 -80.0291 207° Southwest  Level FlightAware Approximate
08:45PM 35.8572 -80.2264 207° Southwest 192 221 7,900  Level Atlanta Center
08:46PM 35.8000 -80.2622 207° Southwest 192 221 7,100 -720 Descending Atlanta Center
08:47PM 35.7508 -80.2928 207° Southwest 188 216 6,400 -720 Descending Atlanta Center
08:48PM 35.7039 -80.3256 210° Southwest 190 219 5,700 -780 Descending Atlanta Center
08:49PM 35.6467 -80.3689 212° Southwest 194 223 4,700 -780 Descending Atlanta Center
08:50PM 35.6167 -80.4086 227° Southwest 191 220 4,100 -780 Descending Atlanta Center
08:51PM 35.5725 -80.4667 227° Southwest 192 221 3,200 -540 Descending Atlanta Center
08:52PM 35.5361 -80.5144 227° Southwest 186 214 3,000 -120 Descending Atlanta Center
08:53PM 35.5081 -80.5514 227° Southwest 177 204 3,000 -300 Level Atlanta Center
08:54PM 35.4739 -80.6011 230° Southwest 175 201 2,500 -600 Descending Atlanta Center
08:55PM 35.4483 -80.6558 240° Southwest 182 209 1,900 -600 Descending Atlanta Center
08:56PM 35.4308 -80.6972 243° Southwest 143 165 1,400 -360 Descending Atlanta Center
08:57PM 35.4103 -80.7083 204° Southwest 111 128 1,200 -240 Descending Atlanta Center